createdAt,value
2022-10-11T00:01:09.288Z,11.17
2022-10-11T00:04:12.570Z,11.11
2022-10-11T00:07:16.374Z,11.03
2022-10-11T00:10:22.299Z,11.00
2022-10-11T00:13:28.779Z,11.00
2022-10-11T00:16:36.462Z,10.93
2022-10-11T00:19:41.703Z,10.84
2022-10-11T00:22:44.892Z,10.80
2022-10-11T00:25:57.487Z,10.71
2022-10-11T00:29:03.357Z,10.62
2022-10-11T00:32:06.805Z,10.52
2022-10-11T00:35:14.726Z,10.43
2022-10-11T00:38:19.719Z,10.33
2022-10-11T00:41:22.962Z,10.24
2022-10-11T00:44:29.993Z,10.16
2022-10-11T00:47:37.166Z,10.04
2022-10-11T00:50:39.832Z,10.01
2022-10-11T00:54:06.587Z,9.91
2022-10-11T00:57:36.355Z,9.89
2022-10-11T01:00:39.528Z,9.80
2022-10-11T01:03:42.767Z,9.68
2022-10-11T01:06:49.386Z,9.65
2022-10-11T01:09:54.472Z,9.62
2022-10-11T01:13:26.714Z,9.58
2022-10-11T01:16:38.823Z,9.59
2022-10-11T01:20:06.782Z,9.57
2022-10-11T01:23:48.483Z,9.54
2022-10-11T01:27:07.002Z,9.50
2022-10-11T01:30:31.583Z,9.52
2022-10-11T01:33:45.211Z,9.56
2022-10-11T01:37:22.032Z,9.53
2022-10-11T01:40:37.122Z,9.53
2022-10-11T01:43:43.865Z,9.52
2022-10-11T01:46:47.154Z,9.51
2022-10-11T01:49:58.702Z,9.50
2022-10-11T01:53:28.478Z,9.51
2022-10-11T01:56:56.939Z,9.46
2022-10-11T02:00:22.029Z,9.44
2022-10-11T02:04:00.591Z,9.44
2022-10-11T02:07:35.267Z,9.51
2022-10-11T02:10:52.383Z,9.64
2022-10-11T02:14:14.297Z,9.64
2022-10-11T02:17:25.293Z,9.64
2022-10-11T02:20:30.971Z,9.62
2022-10-11T02:24:02.143Z,9.65
2022-10-11T02:27:06.448Z,9.69
2022-10-11T02:30:11.949Z,9.69
2022-10-11T02:33:22.166Z,9.71
2022-10-11T02:37:13.597Z,9.73
2022-10-11T02:40:37.981Z,9.76
2022-10-11T02:43:48.490Z,9.86
2022-10-11T02:46:52.087Z,9.89
2022-10-11T02:50:01.644Z,9.88
2022-10-11T02:53:06.353Z,9.86
2022-10-11T02:56:09.450Z,9.79
2022-10-11T02:59:13.483Z,9.78
2022-10-11T03:02:18.757Z,9.76
2022-10-11T03:05:23.948Z,9.80
2022-10-11T03:08:29.462Z,9.84
2022-10-11T03:11:32.275Z,9.97
2022-10-11T03:14:37.999Z,10.03
2022-10-11T03:17:41.446Z,10.09
2022-10-11T03:20:48.746Z,10.20
2022-10-11T03:23:57.312Z,10.29
2022-10-11T03:27:02.725Z,10.45
2022-10-11T03:30:16.193Z,10.53
2022-10-11T03:33:24.432Z,10.64
2022-10-11T03:36:29.766Z,10.67
2022-10-11T03:39:34.982Z,10.76
2022-10-11T03:42:38.297Z,10.79
2022-10-11T03:45:44.334Z,10.87
2022-10-11T03:48:47.593Z,10.94
2022-10-11T03:51:51.216Z,10.94
2022-10-11T03:54:53.639Z,10.94
2022-10-11T03:57:56.318Z,10.95
2022-10-11T04:01:02.660Z,10.92
2022-10-11T04:04:08.674Z,10.83
2022-10-11T04:07:13.609Z,10.77
2022-10-11T04:10:17.394Z,10.72
2022-10-11T04:13:39.662Z,10.80
2022-10-11T04:16:49.520Z,10.73
2022-10-11T04:19:52.180Z,10.82
2022-10-11T04:22:57.884Z,10.75
2022-10-11T04:26:00.910Z,10.95
2022-10-11T04:29:05.587Z,11.01
2022-10-11T04:32:10.466Z,11.10
2022-10-11T04:35:13.829Z,11.21
2022-10-11T04:38:16.517Z,11.29
2022-10-11T04:41:21.198Z,11.25
2022-10-11T04:44:25.425Z,11.32
2022-10-11T04:47:31.070Z,11.29
2022-10-11T04:50:33.745Z,11.32
2022-10-11T04:53:41.765Z,11.35
2022-10-11T04:56:45.784Z,11.35
2022-10-11T04:59:53.790Z,11.28
2022-10-11T05:02:58.216Z,11.35
2022-10-11T05:06:05.375Z,11.35
2022-10-11T05:09:08.828Z,11.38
2022-10-11T05:12:16.863Z,11.41
2022-10-11T05:15:19.612Z,11.44
2022-10-11T05:18:24.201Z,11.43
2022-10-11T05:21:29.053Z,11.54
2022-10-11T05:24:34.892Z,11.56
2022-10-11T05:27:58.007Z,11.57
2022-10-11T05:31:03.279Z,11.57
2022-10-11T05:34:08.235Z,11.64
2022-10-11T05:37:11.003Z,11.69
2022-10-11T05:40:15.848Z,11.72
2022-10-11T05:43:19.031Z,11.80
2022-10-11T05:46:26.348Z,11.90
2022-10-11T05:49:30.107Z,11.83
2022-10-11T05:52:52.753Z,11.81
2022-10-11T05:55:58.077Z,11.87
2022-10-11T05:59:20.363Z,11.89
2022-10-11T06:02:24.599Z,12.01
2022-10-11T06:05:27.981Z,12.17
2022-10-11T06:09:12.725Z,12.35
2022-10-11T06:12:23.706Z,12.62
2022-10-11T06:15:27.466Z,12.79
2022-10-11T06:19:05.090Z,13.04
2022-10-11T06:22:39.154Z,13.16
2022-10-11T06:26:07.980Z,13.33
2022-10-11T06:29:38.972Z,13.54
2022-10-11T06:33:05.297Z,13.67
2022-10-11T06:36:28.412Z,13.98
2022-10-11T06:40:15.581Z,13.96
2022-10-11T06:43:42.438Z,14.05
2022-10-11T06:47:16.858Z,14.08
2022-10-11T06:51:07.872Z,14.25
2022-10-11T06:54:44.912Z,14.59
2022-10-11T06:58:25.100Z,14.91
2022-10-11T07:01:59.081Z,15.11
2022-10-11T07:05:53.162Z,15.31
2022-10-11T07:09:24.813Z,15.47
2022-10-11T07:13:00.496Z,15.59
2022-10-11T07:16:38.024Z,15.47
2022-10-11T07:20:24.404Z,15.38
2022-10-11T07:24:07.222Z,15.72
2022-10-11T07:27:51.659Z,15.94
2022-10-11T07:31:28.961Z,15.81
2022-10-11T07:35:04.657Z,15.93
2022-10-11T07:38:41.926Z,15.84
2022-10-11T07:42:22.438Z,15.81
2022-10-11T07:46:09.703Z,15.71
2022-10-11T07:49:44.363Z,15.69
2022-10-11T07:53:31.047Z,15.45
2022-10-11T07:57:08.465Z,15.44
2022-10-11T08:00:43.104Z,15.48
2022-10-11T08:04:28.428Z,15.63
2022-10-11T08:08:05.839Z,15.69
2022-10-11T08:11:55.981Z,15.74
2022-10-11T08:15:33.255Z,15.49
2022-10-11T08:19:11.261Z,15.30
2022-10-11T08:22:49.297Z,15.46
2022-10-11T08:26:18.528Z,15.45
2022-10-11T08:29:56.579Z,15.52
2022-10-11T08:33:36.021Z,15.68
2022-10-11T08:40:52.554Z,16.02
2022-10-11T08:44:46.127Z,16.22
2022-10-11T08:48:15.852Z,16.39
2022-10-11T08:52:14.819Z,16.77
2022-10-11T08:55:54.512Z,16.77
2022-10-11T08:59:46.193Z,16.89
2022-10-11T09:03:46.290Z,17.38
2022-10-11T09:07:59.939Z,17.98
2022-10-11T09:11:56.759Z,18.27
2022-10-11T09:16:03.934Z,18.53
2022-10-11T09:20:04.794Z,19.33
2022-10-11T09:23:55.974Z,19.86
2022-10-11T09:31:58.237Z,21.19
2022-10-11T09:35:47.121Z,21.72
2022-10-11T09:39:37.249Z,21.19
2022-10-11T09:43:14.113Z,20.80
2022-10-11T09:46:49.790Z,20.75
2022-10-11T09:50:26.401Z,20.88
2022-10-11T09:54:05.120Z,20.26
2022-10-11T09:57:25.984Z,20.54
2022-10-11T10:01:26.336Z,20.19
2022-10-11T10:05:11.998Z,20.23
2022-10-11T10:08:45.849Z,19.99
2022-10-11T10:12:30.947Z,20.69
2022-10-11T10:16:28.244Z,20.87
2022-10-11T10:20:05.758Z,20.98
2022-10-11T10:23:31.446Z,20.95
2022-10-11T10:27:14.908Z,21.36
2022-10-11T10:31:01.655Z,21.50
2022-10-11T10:34:41.696Z,22.20
2022-10-11T10:38:43.158Z,23.03
2022-10-11T10:42:08.970Z,23.39
2022-10-11T10:45:58.046Z,23.93
2022-10-11T10:49:54.769Z,24.13
2022-10-11T10:53:34.843Z,24.18
2022-10-11T10:57:20.912Z,24.85
2022-10-11T11:01:13.812Z,23.65
2022-10-11T11:05:07.105Z,23.92
2022-10-11T11:09:24.772Z,23.46
2022-10-11T11:13:36.136Z,24.00
2022-10-11T11:17:39.083Z,24.29
2022-10-11T11:21:41.330Z,23.76
2022-10-11T11:25:30.847Z,22.90
2022-10-11T11:29:15.164Z,22.78
2022-10-11T11:36:46.337Z,22.28
2022-10-11T11:40:42.451Z,22.53
2022-10-11T11:47:55.606Z,22.54
2022-10-11T11:51:39.429Z,22.74
2022-10-11T11:55:43.165Z,22.86
2022-10-11T11:59:21.250Z,22.62
2022-10-11T12:03:01.958Z,22.87
2022-10-11T12:07:04.191Z,23.03
2022-10-11T12:10:53.600Z,22.43
2022-10-11T12:14:41.133Z,23.26
2022-10-11T12:18:33.835Z,23.65
2022-10-11T12:22:17.477Z,23.25
2022-10-11T12:26:28.432Z,22.31
2022-10-11T12:30:44.294Z,22.75
2022-10-11T12:34:34.420Z,22.74
2022-10-11T12:38:30.344Z,22.01
2022-10-11T12:42:23.262Z,22.13
2022-10-11T12:45:50.840Z,21.85
2022-10-11T12:49:45.454Z,21.60
2022-10-11T12:54:29.025Z,21.37
2022-10-11T12:58:19.598Z,21.84
2022-10-11T13:02:00.704Z,21.90
2022-10-11T13:05:08.582Z,21.97
2022-10-11T13:09:05.608Z,21.66
2022-10-11T13:12:45.928Z,21.62
2022-10-11T13:15:54.359Z,21.22
2022-10-11T13:19:31.986Z,21.20
2022-10-11T13:23:22.193Z,21.19
2022-10-11T13:27:05.025Z,20.93
2022-10-11T13:30:56.327Z,21.52
2022-10-11T13:34:17.589Z,21.35
2022-10-11T13:37:49.508Z,20.69
2022-10-11T13:41:34.293Z,20.47
2022-10-11T13:45:02.068Z,20.76
2022-10-11T13:48:41.239Z,20.87
2022-10-11T13:51:44.785Z,20.67
2022-10-11T13:55:11.671Z,20.55
2022-10-11T13:59:04.950Z,20.35
2022-10-11T14:07:41.060Z,20.42
2022-10-11T14:11:26.664Z,20.25
2022-10-11T14:18:54.146Z,20.12
2022-10-11T14:22:40.671Z,20.00
2022-10-11T14:26:19.063Z,19.83
2022-10-11T14:29:40.034Z,19.75
2022-10-11T14:33:15.326Z,19.68
2022-10-11T14:36:58.826Z,19.53
2022-10-11T14:40:20.965Z,19.46
2022-10-11T14:44:05.233Z,19.34
2022-10-11T14:47:25.566Z,19.22
2022-10-11T14:51:04.868Z,19.20
2022-10-11T14:54:40.963Z,19.09
2022-10-11T14:58:23.354Z,18.98
2022-10-11T15:02:02.941Z,19.00
2022-10-11T15:05:36.719Z,18.87
2022-10-11T15:12:58.941Z,18.66
2022-10-11T15:16:42.980Z,18.55
2022-10-11T15:20:22.909Z,18.52
2022-10-11T15:24:00.170Z,18.41
2022-10-11T15:46:23.445Z,17.88
2022-10-11T15:53:26.123Z,17.59
2022-10-11T15:56:34.047Z,17.39
2022-10-11T15:59:42.671Z,17.19
2022-10-11T16:02:53.751Z,16.96
2022-10-11T16:06:04.621Z,16.72
2022-10-11T16:09:24.150Z,16.52
2022-10-11T16:12:29.205Z,16.28
2022-10-11T16:15:32.045Z,16.05
2022-10-11T16:18:55.400Z,15.87
2022-10-11T16:22:22.252Z,15.67
2022-10-11T16:25:26.995Z,15.46
2022-10-11T16:28:34.744Z,15.28
2022-10-11T16:31:42.359Z,15.11
2022-10-11T16:34:46.009Z,14.95
2022-10-11T16:38:25.382Z,14.81
2022-10-11T16:41:58.053Z,14.69
2022-10-11T16:45:02.183Z,14.59
2022-10-11T16:48:06.640Z,14.46
2022-10-11T16:51:31.796Z,14.35
2022-10-11T16:54:57.114Z,14.28
2022-10-11T16:58:01.555Z,14.16
2022-10-11T17:01:13.448Z,14.11
2022-10-11T17:04:40.571Z,14.11
2022-10-11T17:08:03.683Z,14.19
2022-10-11T17:11:39.834Z,14.30
2022-10-11T17:15:31.120Z,14.43
2022-10-11T17:19:13.305Z,14.52
2022-10-11T17:22:57.116Z,14.58
2022-10-11T17:26:44.480Z,14.65
2022-10-11T17:30:09.170Z,14.58
2022-10-11T17:41:04.747Z,14.46
2022-10-11T17:44:25.329Z,14.38
2022-10-11T17:48:08.200Z,14.32
2022-10-11T17:51:43.500Z,14.29
2022-10-11T17:55:03.009Z,14.25
2022-10-11T17:58:40.920Z,14.27
2022-10-11T18:02:17.280Z,14.16
2022-10-11T18:31:20.298Z,13.36
2022-10-11T18:50:20.262Z,12.94
2022-10-11T18:54:32.013Z,12.97
2022-10-11T19:02:04.176Z,12.93
2022-10-11T19:05:23.819Z,12.87
2022-10-11T19:08:51.515Z,12.75
2022-10-11T19:12:23.344Z,12.63
2022-10-11T19:16:04.171Z,12.50
2022-10-11T19:19:43.078Z,12.45
2022-10-11T19:23:12.557Z,12.35
2022-10-11T19:26:48.683Z,12.26
2022-10-11T19:29:56.290Z,12.18
2022-10-11T19:33:45.347Z,12.11
2022-10-11T19:37:30.114Z,12.03
2022-10-11T19:41:15.811Z,11.93
2022-10-11T19:44:59.358Z,11.82
2022-10-11T19:48:54.669Z,11.77
2022-10-11T19:52:35.473Z,11.78
2022-10-11T19:59:53.432Z,11.65
2022-10-11T20:03:17.633Z,11.58
2022-10-11T20:07:18.762Z,11.57
2022-10-11T20:10:42.512Z,11.56
2022-10-11T20:14:00.284Z,11.60
2022-10-11T20:17:49.043Z,11.62
2022-10-11T20:21:35.616Z,11.65
2022-10-11T20:24:57.678Z,11.72
2022-10-11T20:28:42.228Z,11.81
2022-10-11T20:32:25.546Z,11.90
2022-10-11T20:35:44.344Z,12.00
2022-10-11T20:39:18.395Z,12.12
2022-10-11T20:43:00.220Z,12.20
2022-10-11T20:46:48.072Z,12.28
2022-10-11T20:50:22.970Z,12.32
2022-10-11T20:54:30.858Z,12.33
2022-10-11T20:57:50.140Z,12.26
2022-10-11T21:01:29.195Z,12.17
2022-10-11T21:05:07.062Z,12.08
2022-10-11T21:08:49.025Z,12.00
2022-10-11T21:12:27.646Z,11.92
2022-10-11T21:16:16.198Z,11.87
2022-10-11T21:20:07.903Z,11.77
2022-10-11T21:24:17.919Z,11.71
2022-10-11T21:27:55.373Z,11.60
2022-10-11T21:31:34.636Z,11.56
2022-10-11T21:35:11.289Z,11.57
2022-10-11T21:38:55.464Z,11.50
2022-10-11T21:42:43.468Z,11.41
2022-10-11T21:47:06.154Z,11.38
2022-10-11T21:50:34.243Z,11.33
2022-10-11T21:54:01.600Z,11.25
2022-10-11T21:57:36.253Z,11.21
2022-10-11T22:01:03.708Z,11.17
2022-10-11T22:04:38.934Z,11.11
2022-10-11T22:07:58.579Z,11.04
2022-10-11T22:11:28.994Z,11.03
2022-10-11T22:14:53.910Z,10.93
2022-10-11T22:18:37.537Z,10.87
2022-10-11T22:21:56.585Z,10.80
2022-10-11T22:25:38.927Z,10.74
2022-10-11T22:29:13.391Z,10.67
2022-10-11T22:32:47.937Z,10.60
2022-10-11T22:36:34.091Z,10.56
2022-10-11T22:44:20.157Z,10.45
2022-10-11T22:48:09.209Z,10.38
2022-10-11T22:51:45.406Z,10.36
2022-10-11T22:55:22.284Z,10.33
2022-10-11T22:59:00.835Z,10.33
2022-10-11T23:02:25.073Z,10.37
2022-10-11T23:06:01.940Z,10.37
2022-10-11T23:09:40.373Z,10.37
2022-10-11T23:13:16.546Z,10.41
2022-10-11T23:16:36.666Z,10.47
2022-10-11T23:20:04.965Z,10.54
2022-10-11T23:27:52.664Z,10.70
2022-10-11T23:31:57.912Z,10.74
2022-10-11T23:35:37.836Z,10.79
2022-10-11T23:39:22.653Z,10.76
2022-10-11T23:43:16.015Z,10.77
2022-10-11T23:50:58.003Z,10.72
2022-10-11T23:54:34.652Z,10.71
2022-10-11T23:58:19.560Z,10.68
